Terminal Aerodrome Forecast
Issued by NWS Cleveland, OH

Home | Current Version | Previous Version | Graphics & Text | Print | Product List | Glossary On
Versions: 1 2 3 4 5 6 7 8 9 10 11 12 13 14
000
FTUS41 KCLE 201120
TAFTOL
TAF
KTOL 201120Z 2012/2112 23005KT P6SM BKN200
     FM201400 24008KT P6SM BKN120
     FM201700 24012KT P6SM VCTS SCT045CB BKN080
     FM210100 28007KT P6SM BKN200
     FM210200 29006KT P6SM SCT200
     FM210800 36004KT 4SM BR SCT070=

USA.gov is the U.S. government's official web portal to all federal, state and local government web resources and services.